createdAt,value
2018-08-23T00:00:53.970Z,94788.16
2018-08-23T00:15:51.656Z,94792.36
2018-08-23T00:30:53.049Z,94787.93
2018-08-23T00:45:53.673Z,94784.63
2018-08-23T01:00:55.145Z,94791.81
2018-08-23T01:15:51.061Z,94796.67
2018-08-23T01:30:51.133Z,94780.44
2018-08-23T01:45:51.039Z,94776.01
2018-08-23T02:15:51.216Z,94766.16
2018-08-23T02:30:57.281Z,94765.83
2018-08-23T02:45:51.264Z,94777.58
2018-08-23T03:00:51.067Z,94783.68
2018-08-23T03:15:50.777Z,94781.25
2018-08-23T03:31:00.281Z,94790.31
2018-08-23T03:45:50.853Z,94788.23
2018-08-23T04:15:50.418Z,94808.02
2018-08-23T04:30:50.329Z,94819.91
2018-08-23T04:45:50.355Z,94825.22
2018-08-23T05:00:50.753Z,94833.14
2018-08-23T05:15:50.745Z,94836.93
2018-08-23T05:30:52.716Z,94835.67
2018-08-23T05:45:53.582Z,94838.48
2018-08-23T06:00:50.731Z,94827.31
2018-08-23T06:15:57.868Z,94824.73
2018-08-23T06:30:55.322Z,94814.81
2018-08-23T07:00:50.569Z,94822.20
2018-08-23T07:30:50.521Z,94817.36
2018-08-23T07:45:51.320Z,94812.19
2018-08-23T08:00:50.494Z,94799.44
2018-08-23T08:15:50.925Z,94789.59
2018-08-23T08:30:57.729Z,94789.77
2018-08-23T08:45:57.253Z,94777.19
2018-08-23T09:00:52.184Z,94764.36
2018-08-23T09:15:50.863Z,94755.66
2018-08-23T09:30:50.390Z,94750.49
2018-08-23T09:45:50.498Z,94728.17
2018-08-23T10:00:55.405Z,94723.81
2018-08-23T10:15:55.879Z,94710.36
2018-08-23T10:30:54.337Z,94694.66
2018-08-23T10:45:52.878Z,94687.71
2018-08-23T11:00:51.152Z,94682.00
2018-08-23T11:30:51.976Z,94637.75
2018-08-23T11:45:56.348Z,94622.30
2018-08-23T12:00:50.656Z,94623.20
2018-08-23T12:15:50.548Z,94589.18
2018-08-23T12:30:50.733Z,94582.21
2018-08-23T12:45:49.645Z,94589.84
2018-08-23T13:00:51.204Z,94566.67
2018-08-23T13:15:51.148Z,94553.73
2018-08-23T13:30:50.953Z,94540.83
2018-08-23T13:45:51.524Z,94547.20
2018-08-23T14:00:50.657Z,94527.12
2018-08-23T14:15:57.684Z,94535.16
2018-08-23T14:30:50.386Z,94517.92
2018-08-23T14:45:50.365Z,94511.78
2018-08-23T15:00:50.814Z,94508.94
2018-08-23T15:15:51.962Z,94510.20
2018-08-23T15:30:50.679Z,94503.28
2018-08-23T15:45:52.665Z,94488.92
2018-08-23T16:00:51.113Z,94487.66
2018-08-23T16:15:58.359Z,94489.68
2018-08-23T16:30:51.625Z,94492.42
2018-08-23T16:45:51.028Z,94492.81
2018-08-23T17:00:50.546Z,94496.91
2018-08-23T17:15:55.433Z,94506.39
2018-08-23T17:30:50.539Z,94509.98
2018-08-23T17:45:51.254Z,94527.03
2018-08-23T18:00:50.868Z,94545.28
2018-08-23T18:15:55.693Z,94542.07
2018-08-23T18:30:50.670Z,94548.23
2018-08-23T18:45:57.973Z,94546.53
2018-08-23T19:00:51.052Z,94549.39
2018-08-23T19:15:55.320Z,94553.88
2018-08-23T19:30:52.368Z,94549.95
2018-08-23T19:45:58.157Z,94562.62
2018-08-23T20:00:52.437Z,94571.61
2018-08-23T20:15:50.492Z,94574.92
2018-08-23T20:30:50.419Z,94580.75
2018-08-23T20:45:50.392Z,94585.89
2018-08-23T21:00:53.767Z,94574.77
2018-08-23T21:15:50.796Z,94576.78
2018-08-23T21:30:51.344Z,94587.63
2018-08-23T21:45:50.804Z,94592.09
2018-08-23T22:15:50.527Z,94567.63
2018-08-23T22:30:50.414Z,94562.68
2018-08-23T22:45:50.345Z,94554.02
2018-08-23T23:00:50.741Z,94552.00
2018-08-23T23:15:50.737Z,94546.98
2018-08-23T23:30:50.845Z,94554.95
2018-08-23T23:45:53.244Z,94540.55
